createdAt,value
2022-12-24T00:02:16.081Z,5.57
2022-12-24T00:04:42.638Z,6.65
2022-12-24T00:07:09.109Z,4.88
2022-12-24T00:09:35.560Z,5.43
2022-12-24T00:12:02.264Z,5.07
2022-12-24T00:14:28.993Z,6.63
2022-12-24T00:16:55.757Z,5.57
2022-12-24T00:19:22.441Z,5.68
2022-12-24T00:21:48.905Z,4.82
2022-12-24T00:24:15.367Z,5.30
2022-12-24T00:26:41.921Z,6.75
2022-12-24T00:29:08.979Z,4.55
2022-12-24T00:31:35.502Z,5.00
2022-12-24T00:34:01.925Z,5.25
2022-12-24T00:36:28.435Z,5.32
2022-12-24T00:38:54.873Z,5.78
2022-12-24T00:41:24.989Z,5.05
2022-12-24T00:43:52.884Z,5.05
2022-12-24T00:46:19.854Z,4.82
2022-12-24T00:48:46.442Z,7.50
2022-12-24T00:51:13.083Z,5.00
2022-12-24T00:53:39.640Z,5.10
2022-12-24T00:56:06.999Z,4.80
2022-12-24T00:58:33.650Z,5.35
2022-12-24T01:01:00.416Z,5.95
2022-12-24T01:03:35.907Z,5.82
2022-12-24T01:06:14.225Z,4.60
2022-12-24T01:08:41.234Z,4.70
2022-12-24T01:11:08.717Z,5.22
2022-12-24T01:13:35.823Z,5.80
2022-12-24T01:16:02.805Z,5.80
2022-12-24T01:18:29.337Z,4.95
2022-12-24T01:21:00.793Z,5.63
2022-12-24T01:23:28.780Z,4.93
2022-12-24T01:25:55.774Z,4.60
2022-12-24T01:28:22.553Z,5.88
2022-12-24T01:30:49.184Z,5.15
2022-12-24T01:33:15.769Z,5.30
2022-12-24T01:35:43.126Z,5.75
2022-12-24T01:38:11.821Z,5.13
2022-12-24T01:40:58.269Z,5.50
2022-12-24T01:43:28.426Z,6.00
2022-12-24T01:46:19.372Z,6.60
2022-12-24T01:48:49.319Z,5.15
2022-12-24T01:51:38.333Z,7.30
2022-12-24T01:54:11.999Z,8.45
2022-12-24T01:56:46.075Z,6.20
2022-12-24T01:59:15.483Z,5.30
2022-12-24T02:01:42.112Z,6.25
2022-12-24T02:04:17.728Z,6.20
2022-12-24T02:06:44.216Z,4.93
2022-12-24T02:09:10.770Z,5.85
2022-12-24T02:11:39.368Z,5.75
2022-12-24T02:14:05.800Z,5.10
2022-12-24T02:16:32.371Z,8.23
2022-12-24T02:19:26.097Z,5.50
2022-12-24T02:22:02.570Z,5.03
2022-12-24T02:24:57.192Z,5.78
2022-12-24T02:27:32.253Z,5.35
2022-12-24T02:30:02.800Z,5.78
2022-12-24T02:32:33.968Z,5.80
2022-12-24T02:35:21.056Z,6.43
2022-12-24T02:37:55.364Z,7.93
2022-12-24T02:40:25.291Z,5.82
2022-12-24T02:42:58.824Z,5.63
2022-12-24T02:45:31.474Z,5.75
2022-12-24T02:47:58.179Z,7.57
2022-12-24T02:50:24.915Z,6.78
2022-12-24T02:52:51.900Z,6.15
2022-12-24T02:55:38.832Z,7.82
2022-12-24T02:58:29.738Z,6.15
2022-12-24T03:01:22.080Z,6.63
2022-12-24T03:03:51.496Z,6.82
2022-12-24T03:06:28.227Z,9.10
2022-12-24T03:09:03.890Z,5.78
2022-12-24T03:11:30.723Z,5.68
2022-12-24T03:13:58.875Z,5.80
2022-12-24T03:16:27.472Z,5.75
2022-12-24T03:18:55.545Z,5.78
2022-12-24T03:21:31.951Z,5.68
2022-12-24T03:23:59.101Z,5.70
2022-12-24T03:26:26.992Z,6.53
2022-12-24T03:28:53.500Z,6.07
2022-12-24T03:31:20.303Z,5.95
2022-12-24T03:33:47.433Z,6.05
2022-12-24T03:36:14.133Z,7.03
2022-12-24T03:38:40.607Z,5.47
2022-12-24T03:41:07.228Z,5.97
2022-12-24T03:43:34.050Z,6.05
2022-12-24T03:46:06.390Z,6.82
2022-12-24T03:48:34.418Z,6.03
2022-12-24T03:51:01.632Z,6.13
2022-12-24T03:53:28.165Z,4.78
2022-12-24T03:55:54.663Z,5.32
2022-12-24T03:58:21.141Z,5.13
2022-12-24T04:00:47.723Z,6.35
2022-12-24T04:03:14.354Z,6.20
2022-12-24T04:05:41.001Z,5.50
2022-12-24T04:08:07.462Z,5.70
2022-12-24T04:10:33.916Z,5.88
2022-12-24T04:13:00.403Z,5.43
2022-12-24T04:15:26.949Z,6.30
2022-12-24T04:17:53.497Z,5.47
2022-12-24T04:20:19.960Z,4.72
2022-12-24T04:22:46.379Z,5.65
2022-12-24T04:25:12.999Z,5.10
2022-12-24T04:27:39.502Z,5.95
2022-12-24T04:30:06.759Z,5.38
2022-12-24T04:32:33.333Z,5.35
2022-12-24T04:34:59.763Z,5.95
2022-12-24T04:37:26.322Z,5.93
2022-12-24T04:39:52.784Z,4.90
2022-12-24T04:42:19.261Z,4.63
2022-12-24T04:44:45.684Z,5.90
2022-12-24T04:47:12.143Z,4.13
2022-12-24T04:49:38.635Z,4.50
2022-12-24T04:52:05.270Z,5.53
2022-12-24T04:54:31.726Z,4.95
2022-12-24T04:56:58.917Z,6.18
2022-12-24T04:59:25.397Z,5.82
2022-12-24T05:04:42.883Z,5.10
2022-12-24T05:07:09.335Z,4.47
2022-12-24T05:09:35.952Z,6.18
2022-12-24T05:12:02.455Z,5.38
2022-12-24T05:14:28.893Z,5.28
2022-12-24T05:16:55.477Z,5.03
2022-12-24T05:19:22.018Z,4.45
2022-12-24T05:22:08.553Z,4.43
2022-12-24T05:24:53.373Z,5.43
2022-12-24T05:27:20.074Z,5.47
2022-12-24T05:29:46.485Z,5.07
2022-12-24T05:32:13.084Z,4.22
2022-12-24T05:34:39.517Z,4.72
2022-12-24T05:37:05.944Z,5.43
2022-12-24T05:39:32.478Z,4.38
2022-12-24T05:41:58.900Z,6.07
2022-12-24T05:44:25.359Z,5.35
2022-12-24T05:46:51.834Z,7.65
2022-12-24T05:49:18.463Z,4.90
2022-12-24T05:51:44.899Z,5.10
2022-12-24T05:54:11.477Z,5.68
2022-12-24T05:56:37.949Z,5.05
2022-12-24T05:59:04.408Z,4.38
2022-12-24T06:01:30.961Z,5.47
2022-12-24T06:03:57.942Z,4.95
2022-12-24T06:06:26.667Z,4.57
2022-12-24T06:08:54.002Z,5.30
2022-12-24T06:11:23.544Z,4.47
2022-12-24T06:13:50.267Z,5.25
2022-12-24T06:16:18.984Z,4.50
2022-12-24T06:18:45.816Z,4.93
2022-12-24T06:21:13.033Z,4.80
2022-12-24T06:23:41.782Z,4.57
2022-12-24T06:26:09.171Z,4.50
2022-12-24T06:28:37.121Z,4.22
2022-12-24T06:31:05.019Z,5.13
2022-12-24T06:33:32.748Z,5.53
2022-12-24T06:35:59.290Z,5.97
2022-12-24T06:38:25.908Z,5.03
2022-12-24T06:40:53.007Z,5.57
2022-12-24T06:43:19.483Z,4.60
2022-12-24T06:45:47.182Z,5.95
2022-12-24T06:48:15.018Z,4.70
2022-12-24T06:50:41.520Z,5.43
2022-12-24T06:53:08.254Z,4.85
2022-12-24T06:55:34.787Z,4.53
2022-12-24T06:58:01.246Z,4.45
2022-12-24T07:00:27.796Z,6.00
2022-12-24T07:02:54.400Z,4.55
2022-12-24T07:05:20.917Z,4.32
2022-12-24T07:07:47.399Z,5.30
2022-12-24T07:10:15.717Z,5.75
2022-12-24T07:12:42.549Z,4.50
2022-12-24T07:15:10.145Z,5.30
2022-12-24T07:17:36.803Z,5.00
2022-12-24T07:20:04.327Z,4.63
2022-12-24T07:22:31.003Z,4.43
2022-12-24T07:24:57.513Z,5.40
2022-12-24T07:27:24.005Z,5.68
2022-12-24T07:29:50.459Z,4.57
2022-12-24T07:32:16.931Z,5.72
2022-12-24T07:34:43.359Z,5.05
2022-12-24T07:37:09.840Z,5.80
2022-12-24T07:39:36.266Z,5.05
2022-12-24T07:42:02.765Z,5.60
2022-12-24T07:44:29.240Z,5.95
2022-12-24T07:46:55.755Z,5.88
2022-12-24T07:49:22.394Z,5.60
2022-12-24T07:51:48.845Z,6.20
2022-12-24T07:54:15.338Z,7.07
2022-12-24T07:56:42.706Z,6.57
2022-12-24T07:59:12.799Z,6.10
2022-12-24T08:01:39.498Z,7.03
2022-12-24T08:04:06.248Z,7.45
2022-12-24T08:06:32.801Z,5.75
2022-12-24T08:08:59.304Z,5.90
2022-12-24T08:11:25.750Z,6.38
2022-12-24T08:13:52.234Z,5.38
2022-12-24T08:16:18.808Z,5.80
2022-12-24T08:18:45.423Z,5.47
2022-12-24T08:21:11.932Z,5.38
2022-12-24T08:23:38.985Z,5.40
2022-12-24T08:26:10.044Z,6.13
2022-12-24T08:28:36.926Z,5.00
2022-12-24T08:31:03.459Z,5.93
2022-12-24T08:33:30.032Z,7.28
2022-12-24T08:35:56.627Z,5.35
2022-12-24T08:38:23.768Z,5.78
2022-12-24T08:40:50.517Z,6.32
2022-12-24T08:43:17.648Z,5.40
2022-12-24T08:45:44.357Z,6.25
2022-12-24T08:48:11.338Z,6.43
2022-12-24T08:50:41.461Z,6.95
2022-12-24T08:53:09.426Z,5.05
2022-12-24T08:55:36.282Z,5.38
2022-12-24T08:58:03.335Z,5.18
2022-12-24T09:00:29.875Z,6.43
2022-12-24T09:02:57.428Z,7.10
2022-12-24T09:05:23.988Z,6.18
2022-12-24T09:07:50.554Z,6.22
2022-12-24T09:10:17.245Z,5.50
2022-12-24T09:12:43.893Z,5.18
2022-12-24T09:15:10.489Z,6.95
2022-12-24T09:17:37.401Z,6.70
2022-12-24T09:20:06.900Z,5.93
2022-12-24T09:22:38.339Z,5.20
2022-12-24T09:25:10.535Z,4.65
2022-12-24T09:27:37.524Z,5.75
2022-12-24T09:30:05.623Z,5.60
2022-12-24T09:32:32.115Z,6.05
2022-12-24T09:34:58.625Z,6.38
2022-12-24T09:37:25.348Z,5.35
2022-12-24T09:39:51.946Z,5.60
2022-12-24T09:42:33.754Z,6.13
2022-12-24T09:45:07.967Z,5.90
2022-12-24T09:47:49.748Z,5.05
2022-12-24T09:50:46.556Z,6.00
2022-12-24T09:53:22.500Z,5.97
2022-12-24T09:55:52.114Z,5.50
2022-12-24T09:58:35.926Z,5.35
2022-12-24T10:01:02.708Z,5.32
2022-12-24T10:03:29.340Z,6.20
2022-12-24T10:06:51.622Z,5.57
2022-12-24T10:09:53.441Z,5.10
2022-12-24T10:12:32.194Z,5.63
2022-12-24T10:15:15.189Z,6.55
2022-12-24T10:18:10.318Z,5.90
2022-12-24T10:20:58.302Z,6.10
2022-12-24T10:23:37.154Z,5.78
2022-12-24T10:26:16.042Z,5.97
2022-12-24T10:28:47.519Z,4.70
2022-12-24T10:31:14.107Z,5.68
2022-12-24T10:33:43.295Z,6.75
2022-12-24T10:36:17.327Z,7.28
2022-12-24T10:38:45.015Z,5.30
2022-12-24T10:41:12.056Z,8.05
2022-12-24T10:43:40.139Z,6.53
2022-12-24T10:46:14.271Z,5.95
2022-12-24T10:48:50.831Z,6.78
2022-12-24T10:51:34.578Z,6.30
2022-12-24T10:54:07.187Z,5.85
2022-12-24T10:56:41.073Z,6.93
2022-12-24T10:59:31.726Z,6.97
2022-12-24T11:02:00.171Z,7.57
2022-12-24T11:04:29.221Z,7.30
2022-12-24T11:07:04.340Z,7.00
2022-12-24T11:09:33.721Z,6.88
2022-12-24T11:12:05.373Z,6.10
2022-12-24T11:14:37.870Z,6.85
2022-12-24T11:17:04.813Z,6.80
2022-12-24T11:19:33.192Z,7.53
2022-12-24T11:22:08.320Z,6.60
2022-12-24T11:24:36.765Z,6.35
2022-12-24T11:27:33.035Z,6.32
2022-12-24T11:30:28.552Z,7.55
2022-12-24T11:33:00.985Z,7.90
2022-12-24T11:35:29.118Z,6.13
2022-12-24T11:38:05.064Z,9.43
2022-12-24T11:40:43.031Z,6.28
2022-12-24T11:43:20.444Z,6.95
2022-12-24T11:45:54.774Z,6.28
2022-12-24T11:48:32.714Z,6.47
2022-12-24T11:51:04.427Z,7.32
2022-12-24T11:53:53.284Z,6.57
2022-12-24T11:56:35.057Z,6.40
2022-12-24T11:59:18.251Z,10.88
2022-12-24T12:01:59.613Z,8.35
2022-12-24T12:04:31.242Z,9.88
2022-12-24T12:07:12.701Z,6.72
2022-12-24T12:10:16.809Z,6.88
2022-12-24T12:12:46.800Z,6.82
2022-12-24T12:15:20.680Z,6.83
2022-12-24T12:17:56.318Z,6.22
2022-12-24T12:20:24.937Z,5.63
2022-12-24T12:23:17.000Z,6.82
2022-12-24T12:25:48.583Z,5.95
2022-12-24T12:28:27.077Z,6.63
2022-12-24T12:31:15.752Z,8.18
2022-12-24T12:34:07.456Z,7.75
2022-12-24T12:39:01.802Z,6.15
2022-12-24T12:41:28.528Z,7.15
2022-12-24T12:44:06.868Z,6.80
2022-12-24T12:47:03.641Z,6.57
2022-12-24T12:49:46.205Z,6.60
2022-12-24T12:52:21.992Z,7.05
2022-12-24T12:54:54.874Z,6.47
2022-12-24T12:57:24.353Z,5.65
2022-12-24T13:00:01.341Z,5.97
2022-12-24T13:02:56.010Z,5.32
2022-12-24T13:05:44.334Z,5.72
2022-12-24T13:08:16.809Z,6.68
2022-12-24T13:10:48.253Z,4.82
2022-12-24T13:13:27.146Z,6.57
2022-12-24T13:16:11.756Z,5.70
2022-12-24T13:19:07.682Z,5.55
2022-12-24T13:21:34.332Z,5.13
2022-12-24T13:24:26.199Z,5.45
2022-12-24T13:27:02.771Z,7.28
2022-12-24T13:29:35.232Z,5.22
2022-12-24T13:32:20.146Z,4.32
2022-12-24T13:34:54.976Z,5.35
2022-12-24T13:37:34.052Z,5.32
2022-12-24T13:40:15.893Z,5.05
2022-12-24T13:42:49.792Z,4.78
2022-12-24T13:45:28.785Z,6.32
2022-12-24T13:48:33.300Z,4.75
2022-12-24T13:51:02.206Z,5.30
2022-12-24T13:53:46.200Z,5.38
2022-12-24T13:56:12.655Z,5.03
2022-12-24T13:58:42.238Z,4.82
2022-12-24T14:01:12.087Z,5.43
2022-12-24T14:03:45.685Z,5.18
2022-12-24T14:06:32.937Z,6.07
2022-12-24T14:09:26.002Z,5.63
2022-12-24T14:11:58.691Z,6.05
2022-12-24T14:14:29.786Z,5.57
2022-12-24T14:17:01.754Z,5.00
2022-12-24T14:19:37.424Z,5.30
2022-12-24T14:22:16.915Z,6.18
2022-12-24T14:24:53.889Z,4.97
2022-12-24T14:27:39.930Z,4.63
2022-12-24T14:30:19.364Z,4.55
2022-12-24T14:32:46.891Z,5.43
2022-12-24T14:35:13.291Z,4.50
2022-12-24T14:37:42.136Z,4.78
2022-12-24T14:40:13.539Z,5.97
2022-12-24T14:42:56.414Z,4.90
2022-12-24T14:45:22.921Z,6.43
2022-12-24T14:48:02.554Z,4.88
2022-12-24T14:50:37.520Z,6.78
2022-12-24T14:53:22.895Z,4.93
2022-12-24T14:55:50.118Z,5.00
2022-12-24T14:58:31.414Z,5.97
2022-12-24T15:01:00.875Z,5.25
2022-12-24T15:03:32.204Z,4.55
2022-12-24T15:06:05.381Z,4.55
2022-12-24T15:08:46.069Z,5.03
2022-12-24T15:11:17.399Z,6.00
2022-12-24T15:13:46.123Z,5.07
2022-12-24T15:16:14.408Z,4.90
2022-12-24T15:18:49.082Z,6.20
2022-12-24T15:21:21.984Z,4.47
2022-12-24T15:23:50.944Z,5.25
2022-12-24T15:26:32.486Z,5.07
2022-12-24T15:29:03.089Z,5.88
2022-12-24T15:33:59.165Z,4.45
2022-12-24T15:36:31.998Z,5.13
2022-12-24T15:39:04.259Z,5.30
2022-12-24T15:41:59.969Z,4.85
2022-12-24T15:44:33.862Z,5.20
2022-12-24T15:47:01.895Z,5.50
2022-12-24T15:49:30.376Z,4.88
2022-12-24T15:52:08.081Z,4.88
2022-12-24T15:54:36.456Z,4.32
2022-12-24T15:57:29.041Z,4.50
2022-12-24T15:59:59.529Z,5.13
2022-12-24T16:02:27.346Z,5.63
2022-12-24T16:04:54.164Z,6.07
2022-12-24T16:07:25.865Z,6.03
2022-12-24T16:10:14.842Z,5.43
2022-12-24T16:12:44.292Z,4.35
2022-12-24T16:15:18.079Z,5.30
2022-12-24T16:17:50.451Z,4.65
2022-12-24T16:20:20.874Z,5.50
2022-12-24T16:22:48.253Z,5.93
2022-12-24T16:25:28.617Z,5.22
2022-12-24T16:28:00.368Z,5.50
2022-12-24T16:30:28.014Z,5.72
2022-12-24T16:32:55.054Z,6.68
2022-12-24T16:35:29.445Z,6.70
2022-12-24T16:37:56.201Z,7.57
2022-12-24T16:40:27.981Z,6.05
2022-12-24T16:43:17.992Z,8.02
2022-12-24T16:45:46.061Z,6.95
2022-12-24T16:48:21.441Z,9.02
2022-12-24T16:50:48.631Z,7.38
2022-12-24T16:53:17.824Z,8.45
2022-12-24T16:55:45.920Z,8.07
2022-12-24T16:58:13.766Z,10.10
2022-12-24T17:00:40.744Z,9.07
2022-12-24T17:03:07.480Z,7.90
2022-12-24T17:05:37.318Z,6.95
2022-12-24T17:08:04.164Z,8.25
2022-12-24T17:10:30.614Z,8.73
2022-12-24T17:12:57.173Z,8.27
2022-12-24T17:15:23.725Z,7.53
2022-12-24T17:17:50.178Z,6.90
2022-12-24T17:20:22.054Z,7.78
2022-12-24T17:22:50.620Z,6.88
2022-12-24T17:25:17.258Z,7.28
2022-12-24T17:27:43.844Z,6.90
2022-12-24T17:30:10.666Z,6.53
2022-12-24T17:32:37.582Z,6.88
2022-12-24T17:35:04.379Z,7.03
2022-12-24T17:37:30.908Z,6.70
2022-12-24T17:39:57.528Z,8.02
2022-12-24T17:42:24.030Z,7.60
2022-12-24T17:44:50.560Z,7.68
2022-12-24T17:47:17.143Z,7.95
2022-12-24T17:49:43.624Z,7.30
2022-12-24T17:52:10.329Z,7.63
2022-12-24T17:54:36.836Z,12.00
2022-12-24T17:57:03.472Z,7.10
2022-12-24T17:59:30.047Z,7.95
2022-12-24T18:01:58.663Z,7.90
2022-12-24T18:04:25.516Z,8.30
2022-12-24T18:06:59.579Z,8.43
2022-12-24T18:09:29.586Z,8.18
2022-12-24T18:12:07.825Z,8.77
2022-12-24T18:14:40.943Z,8.15
2022-12-24T18:17:07.484Z,10.10
2022-12-24T18:19:34.044Z,8.43
2022-12-24T18:22:00.575Z,7.68
2022-12-24T18:24:27.129Z,9.23
2022-12-24T18:26:53.689Z,9.13
2022-12-24T18:29:20.311Z,9.35
2022-12-24T18:31:46.870Z,9.32
2022-12-24T18:34:14.042Z,13.18
2022-12-24T18:36:40.639Z,13.95
2022-12-24T18:39:07.111Z,10.50
2022-12-24T18:41:35.475Z,10.55
2022-12-24T18:44:02.066Z,13.10
2022-12-24T18:46:31.174Z,11.82
2022-12-24T18:48:59.625Z,8.60
2022-12-24T18:51:29.690Z,9.40
2022-12-24T18:53:56.278Z,9.13
2022-12-24T18:56:24.800Z,10.88
2022-12-24T18:58:56.568Z,10.82
2022-12-24T19:01:25.780Z,9.45
2022-12-24T19:03:52.893Z,9.48
2022-12-24T19:06:20.220Z,9.88
2022-12-24T19:09:02.863Z,18.20
2022-12-24T19:11:31.820Z,13.75
2022-12-24T19:13:58.939Z,14.38
2022-12-24T19:16:26.675Z,20.60
2022-12-24T19:18:53.551Z,24.00
2022-12-24T19:21:20.342Z,16.70
2022-12-24T19:23:47.384Z,16.58
2022-12-24T19:26:15.322Z,15.45
2022-12-24T19:28:42.134Z,11.07
2022-12-24T19:31:20.731Z,12.07
2022-12-24T19:33:51.276Z,13.38
2022-12-24T19:36:21.167Z,10.40
2022-12-24T19:38:47.760Z,10.77
2022-12-24T19:41:16.765Z,10.40
2022-12-24T19:43:45.315Z,9.02
2022-12-24T19:46:14.611Z,10.23
2022-12-24T19:48:41.713Z,11.30
2022-12-24T19:51:11.209Z,9.27
2022-12-24T19:53:38.663Z,8.00
2022-12-24T19:56:05.584Z,10.40
2022-12-24T19:58:32.756Z,8.77
2022-12-24T20:01:11.171Z,8.68
2022-12-24T20:03:41.196Z,9.70
2022-12-24T20:06:08.615Z,10.27
2022-12-24T20:08:35.888Z,8.52
2022-12-24T20:11:07.626Z,9.38
2022-12-24T20:13:35.067Z,12.30
2022-12-24T20:16:12.922Z,9.50
2022-12-24T20:18:39.752Z,9.30
2022-12-24T20:21:09.353Z,9.18
2022-12-24T20:23:40.533Z,10.23
2022-12-24T20:26:08.838Z,9.50
2022-12-24T20:28:36.818Z,10.88
2022-12-24T20:31:23.690Z,11.38
2022-12-24T20:33:50.529Z,12.38
2022-12-24T20:36:18.582Z,12.35
2022-12-24T20:38:45.924Z,10.07
2022-12-24T20:41:14.112Z,10.73
2022-12-24T20:43:48.019Z,10.88
2022-12-24T20:46:16.798Z,10.23
2022-12-24T20:48:43.400Z,11.50
2022-12-24T20:51:20.996Z,10.43
2022-12-24T20:53:53.478Z,10.93
2022-12-24T20:56:20.230Z,10.00
2022-12-24T20:58:47.197Z,11.55
2022-12-24T21:01:19.336Z,9.63
2022-12-24T21:03:46.428Z,9.73
2022-12-24T21:06:13.930Z,10.00
2022-12-24T21:08:40.406Z,10.73
2022-12-24T21:11:25.593Z,10.48
2022-12-24T21:13:52.115Z,10.60
2022-12-24T21:16:18.807Z,11.48
2022-12-24T21:18:45.419Z,11.93
2022-12-24T21:21:11.957Z,9.65
2022-12-24T21:23:38.440Z,10.02
2022-12-24T21:26:05.722Z,11.25
2022-12-24T21:28:32.807Z,9.23
2022-12-24T21:30:59.800Z,12.48
2022-12-24T21:33:26.522Z,9.05
2022-12-24T21:35:59.548Z,13.10
2022-12-24T21:38:26.748Z,8.88
2022-12-24T21:41:01.039Z,7.47
2022-12-24T21:43:30.261Z,9.13
2022-12-24T21:45:57.196Z,8.45
2022-12-24T21:48:42.878Z,7.88
2022-12-24T21:51:09.824Z,7.18
2022-12-24T21:53:55.095Z,8.23
2022-12-24T21:56:22.344Z,9.45
2022-12-24T21:58:50.179Z,9.88
2022-12-24T22:01:17.078Z,10.15
2022-12-24T22:03:44.133Z,8.15
2022-12-24T22:06:30.903Z,8.05
2022-12-24T22:09:16.035Z,7.47
2022-12-24T22:11:53.821Z,7.47
2022-12-24T22:14:21.144Z,7.90
2022-12-24T22:16:47.767Z,8.75
2022-12-24T22:19:14.364Z,7.20
2022-12-24T22:21:40.919Z,7.90
2022-12-24T22:24:08.057Z,7.20
2022-12-24T22:26:34.595Z,8.40
2022-12-24T22:29:04.642Z,7.10
2022-12-24T22:31:32.573Z,7.13
2022-12-24T22:33:59.465Z,8.45
2022-12-24T22:36:25.980Z,7.20
2022-12-24T22:38:52.580Z,6.85
2022-12-24T22:41:19.194Z,6.97
2022-12-24T22:43:45.707Z,7.40
2022-12-24T22:46:14.786Z,7.63
2022-12-24T22:48:42.960Z,8.07
2022-12-24T22:51:12.478Z,6.30
2022-12-24T22:53:39.062Z,5.97
2022-12-24T22:56:07.150Z,7.22
2022-12-24T22:58:34.167Z,6.55
2022-12-24T23:01:00.801Z,6.15
2022-12-24T23:03:29.364Z,6.70
2022-12-24T23:05:57.608Z,7.65
2022-12-24T23:08:24.938Z,6.85
2022-12-24T23:10:52.580Z,6.85
2022-12-24T23:13:38.222Z,6.35
2022-12-24T23:16:06.751Z,6.57
2022-12-24T23:18:33.666Z,6.90
2022-12-24T23:21:05.061Z,7.32
2022-12-24T23:23:36.779Z,7.25
2022-12-24T23:26:06.156Z,7.05
2022-12-24T23:28:32.631Z,6.82
2022-12-24T23:30:59.719Z,7.22
2022-12-24T23:33:27.284Z,6.28
2022-12-24T23:35:53.946Z,6.88
2022-12-24T23:38:20.716Z,6.03
2022-12-24T23:40:47.294Z,5.40
2022-12-24T23:43:14.074Z,5.88
2022-12-24T23:45:46.624Z,6.25
2022-12-24T23:48:13.234Z,5.80
2022-12-24T23:50:39.751Z,5.30
2022-12-24T23:53:06.207Z,6.38
2022-12-24T23:55:32.703Z,5.55
2022-12-24T23:57:59.222Z,6.22
